Time;durP1;ratioP1;P1;durP2;ratioP2;P2;SDS_P1;SDS_P2;PMS_P1;PMS_P2;Temp;Humidity;BMP_temperature;BMP_pressure;BME280_temperature;BME280_humidity;BME280_pressure;Samples;Min_cycle;Max_cycle;Signal;HPM_P1;HPM_P2
2023/07/19 00:02:26;;;;;;;6.37;5.83;;;;;;;27.94;43.25;95246.69;6117514;28;109518;-65
2023/07/19 00:05:30;;;;;;;6.33;5.83;;;;;;;27.93;43.46;95240.53;6117675;28;110200;-65
2023/07/19 00:08:33;;;;;;;6.77;6.10;;;;;;;27.93;42.76;95245.13;6110135;28;109093;-64
2023/07/19 00:11:37;;;;;;;7.37;6.77;;;;;;;27.91;43.20;95242.00;6129760;28;109125;-65
2023/07/19 00:14:40;;;;;;;6.57;6.07;;;;;;;27.89;43.28;95250.41;6115344;28;112170;-66
2023/07/19 00:17:45;;;;;;;6.40;5.80;;;;;;;27.87;42.70;95252.63;6132850;28;110086;-65
2023/07/19 00:20:48;;;;;;;6.47;5.87;;;;;;;27.86;43.14;95248.38;6111234;28;109752;-64
2023/07/19 00:23:52;;;;;;;5.90;5.40;;;;;;;27.83;43.28;95243.63;6121197;28;109096;-65
2023/07/19 00:26:57;;;;;;;6.70;6.10;;;;;;;27.85;42.67;95240.59;6118387;28;109079;-64
2023/07/19 00:30:00;;;;;;;5.93;5.53;;;;;;;27.83;43.22;95240.94;6112837;28;110123;-70
2023/07/19 00:33:04;;;;;;;6.10;5.60;;;;;;;27.88;43.09;95234.59;6107985;28;109050;-70
2023/07/19 00:36:08;;;;;;;6.90;5.93;;;;;;;27.90;43.48;95237.75;6118286;28;109043;-71
2023/07/19 00:39:13;;;;;;;7.43;5.80;;;;;;;27.92;43.51;95249.72;6138174;28;109126;-70
2023/07/19 00:42:17;;;;;;;6.70;6.10;;;;;;;27.93;43.06;95253.19;6115469;28;110473;-70
2023/07/19 00:45:20;;;;;;;6.20;5.70;;;;;;;27.93;43.50;95247.81;6103442;28;109823;-70
2023/07/19 00:48:23;;;;;;;6.47;5.97;;;;;;;27.94;43.26;95247.47;6112790;28;109059;-70
2023/07/19 00:51:27;;;;;;;6.80;6.10;;;;;;;27.93;43.21;95245.13;6127329;28;109212;-71
2023/07/19 00:54:31;;;;;;;6.70;6.00;;;;;;;27.92;43.64;95246.25;6105955;28;109111;-64
2023/07/19 00:57:36;;;;;;;6.93;5.83;;;;;;;27.93;43.66;95240.53;6116815;28;109310;-71
2023/07/19 01:00:39;;;;;;;6.70;6.10;;;;;;;27.91;43.42;95237.41;6125803;28;109238;-70
2023/07/19 01:03:43;;;;;;;6.27;5.77;;;;;;;27.90;43.10;95240.44;6135670;28;109205;-70
2023/07/19 01:06:46;;;;;;;6.30;5.80;;;;;;;27.90;43.58;95243.91;6108609;28;109338;-70
2023/07/19 01:09:50;;;;;;;5.77;5.37;;;;;;;27.91;43.19;95237.41;6091337;28;109072;-70
2023/07/19 01:13:08;;;;;;;6.50;6.00;;;;;;;27.89;43.02;95238.84;6128949;28;109173;-60
2023/07/19 01:16:11;;;;;;;6.20;5.80;;;;;;;27.91;43.65;95247.38;6116915;28;109089;-60
2023/07/19 01:19:16;;;;;;;6.07;5.57;;;;;;;27.90;43.64;95235.84;6101695;28;109560;-62
2023/07/19 01:22:19;;;;;;;6.07;5.57;;;;;;;27.91;42.88;95239.31;6127703;28;109195;-60
2023/07/19 01:25:24;;;;;;;6.80;6.13;;;;;;;27.83;42.99;95232.09;6136142;28;109077;-60
2023/07/19 01:28:27;;;;;;;7.10;6.40;;;;;;;27.81;43.53;95237.03;6113359;28;109294;-61
2023/07/19 01:31:30;;;;;;;6.67;6.10;;;;;;;27.81;43.08;95237.03;6113574;28;109294;-60
2023/07/19 01:34:34;;;;;;;6.83;6.30;;;;;;;27.69;43.13;95245.88;6124391;28;109239;-60
2023/07/19 01:37:37;;;;;;;7.40;6.80;;;;;;;27.50;43.63;95240.28;6111243;28;109644;-60
2023/07/19 01:40:42;;;;;;;7.37;6.70;;;;;;;27.45;43.71;95231.34;6122545;28;109123;-60
2023/07/19 01:43:45;;;;;;;6.93;6.40;;;;;;;27.52;43.55;95235.34;6115794;28;109117;-60
2023/07/19 01:46:48;;;;;;;7.07;6.07;;;;;;;27.60;43.33;95242.53;6111758;28;109107;-61
2023/07/19 01:49:52;;;;;;;7.30;6.60;;;;;;;27.58;43.83;95239.41;6111883;28;109458;-61
2023/07/19 01:52:55;;;;;;;7.27;6.60;;;;;;;27.63;43.79;95239.19;6121410;28;109022;-61
2023/07/19 01:55:59;;;;;;;6.93;6.43;;;;;;;27.71;43.45;95238.25;6117428;28;109243;-61
2023/07/19 01:59:03;;;;;;;7.17;6.60;;;;;;;27.66;44.10;95241.19;6126415;28;109117;-61
2023/07/19 02:02:07;;;;;;;7.00;6.40;;;;;;;27.53;43.90;95231.53;6122894;28;109162;-62
2023/07/19 02:05:10;;;;;;;8.10;6.30;;;;;;;27.62;43.94;95238.38;6105895;28;109213;-60
2023/07/19 02:08:13;;;;;;;6.97;6.50;;;;;;;27.57;43.74;95245.91;6115565;28;109422;-61
2023/07/19 02:11:18;;;;;;;7.40;6.80;;;;;;;27.41;43.80;95238.50;6118294;28;109068;-61
2023/07/19 02:14:22;;;;;;;8.00;7.33;;;;;;;27.44;43.54;95237.06;6101680;28;109152;-61
2023/07/19 02:17:25;;;;;;;8.57;6.63;;;;;;;27.44;44.12;95231.66;6113996;28;109177;-60
2023/07/19 02:20:28;;;;;;;7.93;7.33;;;;;;;27.29;44.08;95222.38;6123931;28;109208;-61
2023/07/19 02:23:32;;;;;;;7.33;6.83;;;;;;;27.25;44.20;95215.28;6115007;28;109085;-61
2023/07/19 02:26:36;;;;;;;7.33;6.63;;;;;;;27.18;44.08;95202.38;6100069;28;109600;-61
2023/07/19 02:29:39;;;;;;;6.77;6.27;;;;;;;27.09;44.55;95207.88;6111476;28;109696;-61
2023/07/19 02:32:42;;;;;;;7.70;7.00;;;;;;;26.99;44.21;95208.28;6118977;28;109314;-61
2023/07/19 02:35:46;;;;;;;7.40;6.70;;;;;;;27.05;44.11;95206.16;6111424;28;110098;-61
2023/07/19 02:38:49;;;;;;;7.30;6.80;;;;;;;27.16;44.48;95204.63;6102371;28;110165;-61
2023/07/19 02:41:53;;;;;;;7.10;6.50;;;;;;;27.28;44.32;95207.34;6123399;28;109118;-61
2023/07/19 02:44:57;;;;;;;8.37;7.70;;;;;;;27.33;44.04;95198.28;6111337;28;109049;-62
2023/07/19 02:48:00;;;;;;;7.20;6.50;;;;;;;27.31;43.67;95198.63;6113798;28;109486;-61
2023/07/19 02:51:03;;;;;;;7.93;7.17;;;;;;;27.31;43.67;95197.84;6124142;28;109222;-61
2023/07/19 02:54:06;;;;;;;7.40;6.70;;;;;;;27.16;43.63;95193.88;6126975;28;109152;-61
2023/07/19 02:57:11;;;;;;;7.23;6.60;;;;;;;27.20;44.13;95202.81;6138871;28;109074;-61
2023/07/19 03:00:14;;;;;;;8.13;7.53;;;;;;;27.31;44.03;95187.09;6117331;28;109339;-61
2023/07/19 03:03:17;;;;;;;8.13;7.50;;;;;;;27.42;43.28;95193.59;6121736;28;109181;-61
2023/07/19 03:06:20;;;;;;;8.77;7.97;;;;;;;27.39;43.54;95192.38;6125116;28;109270;-61
2023/07/19 03:09:24;;;;;;;7.70;7.00;;;;;;;27.37;43.27;95189.19;6114956;28;109360;-61
2023/07/19 03:12:28;;;;;;;6.60;6.00;;;;;;;27.22;44.12;95192.56;6120381;28;109134;-61
2023/07/19 03:15:35;;;;;;;8.63;6.73;;;;;;;27.02;44.22;95201.47;6123744;28;109019;-61
2023/07/19 03:18:38;;;;;;;10.73;7.57;;;;;;;26.96;44.22;95198.22;6120204;28;108983;-61
2023/07/19 03:21:41;;;;;;;10.67;9.77;;;;;;;27.02;44.54;95188.03;6110673;28;109079;-62
2023/07/19 03:24:44;;;;;;;15.13;13.93;;;;;;;26.89;44.21;95197.22;6108213;28;109353;-61
2023/07/19 03:27:49;;;;;;;10.40;9.50;;;;;;;26.82;44.46;95198.53;6120500;28;109093;-61
2023/07/19 03:30:54;;;;;;;17.20;15.70;;;;;;;26.80;44.43;95197.28;6116698;28;109143;-61
2023/07/19 03:33:57;;;;;;;9.70;8.93;;;;;;;26.56;45.44;95200.66;6115027;28;110213;-70
2023/07/19 03:37:00;;;;;;;9.37;8.60;;;;;;;26.33;47.08;95194.06;6125300;28;108968;-70
2023/07/19 03:40:05;;;;;;;9.60;8.70;;;;;;;26.55;46.50;95199.88;6131078;28;109013;-70
2023/07/19 03:43:10;;;;;;;9.57;8.40;;;;;;;26.06;48.13;95184.69;6118210;28;109115;-70
2023/07/19 03:46:13;;;;;;;9.10;8.20;;;;;;;25.66;48.36;95193.13;6105236;28;108968;-70
2023/07/19 03:49:16;;;;;;;10.77;8.77;;;;;;;25.58;48.53;95189.38;6114763;28;110728;-70
2023/07/19 03:52:19;;;;;;;8.83;7.83;;;;;;;25.84;47.88;95186.53;6119193;28;109154;-70
2023/07/19 03:55:23;;;;;;;8.03;7.23;;;;;;;25.98;47.63;95183.59;6133243;28;109034;-70
2023/07/19 03:58:28;;;;;;;8.57;7.77;;;;;;;26.01;47.16;95169.56;6103492;28;108989;-68
2023/07/19 04:01:33;;;;;;;7.93;7.23;;;;;;;26.20;46.42;95169.88;6123315;28;109007;-70
2023/07/19 04:04:36;;;;;;;9.60;8.07;;;;;;;26.29;46.80;95169.81;6115305;28;110056;-65
2023/07/19 04:07:39;;;;;;;17.23;14.03;;;;;;;26.51;47.44;95171.31;6116621;28;110049;-65
2023/07/19 04:10:43;;;;;;;19.53;17.60;;;;;;;26.70;46.67;95168.94;6110466;28;109455;-71
2023/07/19 04:13:47;;;;;;;12.33;10.53;;;;;;;26.84;46.65;95174.81;6129328;28;108678;-70
2023/07/19 04:16:56;;;;;;;13.10;11.63;;;;;;;26.94;46.24;95172.81;6137548;28;109078;-69
2023/07/19 04:20:00;;;;;;;11.90;10.53;;;;;;;26.91;46.15;95174.28;6127381;28;108849;-65
2023/07/19 04:23:03;;;;;;;10.47;8.90;;;;;;;26.97;45.91;95166.78;6137096;28;109204;-65
2023/07/19 04:26:06;;;;;;;9.80;8.80;;;;;;;26.95;45.72;95158.25;6136975;28;109082;-65
2023/07/19 04:29:10;;;;;;;10.13;8.40;;;;;;;26.63;46.37;95149.94;6136673;28;108903;-65
2023/07/19 04:32:13;;;;;;;8.60;7.70;;;;;;;26.76;45.77;95151.53;6125980;28;108811;-65
2023/07/19 04:35:17;;;;;;;10.10;8.23;;;;;;;26.55;46.51;95148.88;6135404;28;109121;-65
2023/07/19 04:38:20;;;;;;;10.20;8.60;;;;;;;26.43;46.88;95153.44;6123749;28;109281;-65
2023/07/19 04:41:23;;;;;;;9.27;8.30;;;;;;;26.33;47.11;95153.81;6132677;28;110510;-65
2023/07/19 04:44:28;;;;;;;9.87;8.93;;;;;;;26.37;46.88;95163.56;6131113;28;110231;-70
2023/07/19 04:47:31;;;;;;;9.13;8.40;;;;;;;26.63;45.84;95155.28;6133279;28;109053;-70
2023/07/19 04:50:34;;;;;;;11.20;8.73;;;;;;;26.66;45.94;95156.53;6113219;28;109092;-70
2023/07/19 04:53:37;;;;;;;10.17;9.23;;;;;;;26.46;46.16;95153.53;6102115;28;109327;-69
2023/07/19 04:56:40;;;;;;;8.60;7.70;;;;;;;26.41;46.95;95155.66;6112466;28;110438;-70
2023/07/19 04:59:45;;;;;;;8.40;7.67;;;;;;;26.38;46.08;95164.34;6112868;28;109094;-70
2023/07/19 05:02:48;;;;;;;10.23;9.00;;;;;;;26.40;47.10;95162.16;6118674;28;110661;-70
2023/07/19 05:05:51;;;;;;;9.30;8.43;;;;;;;26.74;45.73;95164.50;6120441;28;109395;-69
2023/07/19 05:08:54;;;;;;;11.30;10.40;;;;;;;26.89;45.73;95171.13;6126964;28;110032;-70
2023/07/19 05:11:57;;;;;;;11.90;10.80;;;;;;;26.89;46.29;95164.97;6136660;28;109440;-70
2023/07/19 05:15:02;;;;;;;9.53;8.73;;;;;;;26.92;46.09;95165.09;6135516;28;109049;-70
2023/07/19 05:18:05;;;;;;;12.77;11.50;;;;;;;27.02;46.04;95166.53;6126920;28;109240;-70
2023/07/19 05:21:08;;;;;;;10.23;9.17;;;;;;;26.85;46.10;95156.78;6136755;28;109089;-70
2023/07/19 05:24:12;;;;;;;9.03;8.13;;;;;;;26.49;46.87;95152.09;6136112;28;108772;-70
2023/07/19 05:27:17;;;;;;;10.00;8.20;;;;;;;26.46;46.67;95155.44;6128829;28;108816;-69
2023/07/19 05:30:22;;;;;;;9.27;8.00;;;;;;;26.40;47.06;95151.41;6131663;28;109057;-70
2023/07/19 05:33:25;;;;;;;9.20;8.20;;;;;;;26.38;47.46;95145.56;6112332;28;109232;-70
2023/07/19 05:36:28;;;;;;;9.17;8.23;;;;;;;26.38;47.76;95148.25;6112205;28;111708;-70
2023/07/19 05:39:31;;;;;;;9.00;8.00;;;;;;;26.52;47.60;95152.22;6101174;28;110022;-70
2023/07/19 05:42:34;;;;;;;9.57;7.90;;;;;;;26.81;46.55;95147.84;6111852;28;109058;-70
2023/07/19 05:45:39;;;;;;;12.90;8.73;;;;;;;26.62;47.53;95134.13;6112739;28;110157;-70
2023/07/19 05:48:43;;;;;;;11.23;7.40;;;;;;;26.91;47.15;95149.31;6112266;28;109053;-70
2023/07/19 05:51:47;;;;;;;11.60;8.00;;;;;;;27.10;46.20;95131.53;6101843;28;109969;-70
2023/07/19 05:54:50;;;;;;;10.83;8.50;;;;;;;27.10;48.39;95139.59;6131220;28;109429;-69
2023/07/19 05:57:53;;;;;;;8.10;7.30;;;;;;;27.17;46.32;95139.81;6132084;28;109202;-69
2023/07/19 06:00:58;;;;;;;10.33;8.30;;;;;;;26.79;48.29;95140.13;6107457;28;109032;-70
2023/07/19 06:04:02;;;;;;;10.17;9.20;;;;;;;26.66;48.40;95137.72;6106490;28;109332;-70
2023/07/19 06:07:05;;;;;;;9.40;8.33;;;;;;;26.85;47.44;95138.78;6111793;28;109130;-69
2023/07/19 06:10:09;;;;;;;9.30;8.30;;;;;;;26.93;48.13;95131.75;6112119;28;110267;-71
2023/07/19 06:13:13;;;;;;;9.37;8.50;;;;;;;27.02;48.26;95127.03;6106777;28;110174;-69
2023/07/19 06:16:18;;;;;;;11.47;7.60;;;;;;;27.01;47.59;95135.44;6135697;28;109082;-70
2023/07/19 06:19:21;;;;;;;8.70;7.60;;;;;;;27.01;46.73;95132.75;6136530;28;111614;-71
2023/07/19 06:22:24;;;;;;;9.47;8.50;;;;;;;27.12;46.97;95129.28;6136049;28;109197;-70
2023/07/19 06:25:27;;;;;;;9.57;8.57;;;;;;;27.21;47.48;95126.47;6126822;28;109502;-70
2023/07/19 06:28:30;;;;;;;12.10;7.40;;;;;;;27.38;47.06;95130.84;6138051;28;109123;-71
2023/07/19 06:31:35;;;;;;;13.13;7.80;;;;;;;27.55;46.95;95127.91;6139722;28;109113;-71
2023/07/19 06:34:38;;;;;;;8.87;8.00;;;;;;;27.67;46.67;95124.44;6124320;28;109289;-71
2023/07/19 06:37:43;;;;;;;10.63;8.53;;;;;;;27.62;45.59;95125.47;6105600;28;109223;-71
2023/07/19 06:40:46;;;;;;;9.47;8.00;;;;;;;27.64;46.02;95119.75;6139343;28;109055;-71
2023/07/19 06:43:49;;;;;;;9.10;8.23;;;;;;;27.74;46.08;95116.59;6139536;28;109486;-71
2023/07/19 06:46:53;;;;;;;10.60;8.20;;;;;;;27.72;45.69;95118.81;6130919;28;112068;-64
2023/07/19 06:49:57;;;;;;;8.33;7.50;;;;;;;27.81;45.77;95118.69;6138394;28;109077;-70
2023/07/19 06:53:00;;;;;;;7.70;7.00;;;;;;;27.88;45.24;95114.31;6138905;28;109055;-70
2023/07/19 06:56:04;;;;;;;8.20;7.07;;;;;;;27.89;45.26;95115.91;6139192;28;109204;-71
2023/07/19 06:59:07;;;;;;;8.00;7.27;;;;;;;27.91;44.75;95119.03;6118486;28;111906;-71
2023/07/19 07:02:12;;;;;;;7.90;6.97;;;;;;;27.94;45.19;95120.25;6115046;28;109460;-70
2023/07/19 07:05:16;;;;;;;8.70;7.47;;;;;;;27.97;45.01;95124.94;6115075;28;109185;-61
2023/07/19 07:08:19;;;;;;;7.73;7.00;;;;;;;28.01;44.76;95123.91;6117462;28;109097;-61
2023/07/19 07:11:22;;;;;;;7.67;6.60;;;;;;;28.16;44.87;95121.63;6128905;28;109254;-61
2023/07/19 07:14:25;;;;;;;10.77;7.07;;;;;;;28.26;45.12;95121.94;6138768;28;109612;-61
2023/07/19 07:17:29;;;;;;;8.60;7.80;;;;;;;28.23;44.17;95116.47;6138619;28;109076;-61
2023/07/19 07:20:35;;;;;;;8.37;7.47;;;;;;;28.14;44.56;95121.97;6133726;28;109062;-61
2023/07/19 07:23:38;;;;;;;8.60;7.90;;;;;;;28.17;44.56;95123.19;6129474;28;112307;-61
2023/07/19 07:26:41;;;;;;;8.03;7.33;;;;;;;28.24;44.16;95116.09;6114031;28;110418;-61
2023/07/19 07:29:44;;;;;;;8.37;7.10;;;;;;;28.24;44.00;95116.09;6113744;28;109073;-61
2023/07/19 07:32:49;;;;;;;8.40;7.70;;;;;;;28.25;44.05;95122.28;6104110;28;109394;-61
2023/07/19 07:35:52;;;;;;;8.30;7.50;;;;;;;28.27;43.69;95120.81;6113664;28;109293;-61
2023/07/19 07:38:56;;;;;;;8.13;7.43;;;;;;;28.33;44.27;95110.56;6114210;28;109162;-61
2023/07/19 07:41:59;;;;;;;8.30;7.50;;;;;;;28.30;43.41;95117.41;6114278;28;109213;-61
2023/07/19 07:45:02;;;;;;;9.23;7.53;;;;;;;28.31;43.95;95104.75;6105000;28;112395;-59
2023/07/19 07:48:07;;;;;;;8.03;7.33;;;;;;;28.34;43.71;95095.97;6114603;28;110134;-59
2023/07/19 07:51:11;;;;;;;9.10;8.20;;;;;;;28.36;43.56;95101.78;6114356;28;109066;-60
2023/07/19 07:54:14;;;;;;;11.23;8.23;;;;;;;28.37;44.00;95095.28;6113657;28;109037;-62
2023/07/19 07:57:17;;;;;;;9.13;8.33;;;;;;;28.53;43.87;95085.34;6106324;28;109074;-60
2023/07/19 08:00:20;;;;;;;9.43;8.00;;;;;;;28.63;43.26;95084.84;6113407;28;109674;-60
2023/07/19 08:03:25;;;;;;;8.40;7.47;;;;;;;28.87;42.61;95075.78;6102454;28;109061;-61
2023/07/19 08:06:28;;;;;;;8.90;7.70;;;;;;;28.79;42.83;95084.06;6104600;28;109856;-60
2023/07/19 08:09:33;;;;;;;9.23;8.27;;;;;;;28.85;42.31;95079.97;6112954;28;109394;-60
2023/07/19 08:12:37;;;;;;;8.40;7.70;;;;;;;28.81;42.33;95079.88;6113794;28;109046;-60
2023/07/19 08:15:40;;;;;;;9.13;8.23;;;;;;;28.80;42.81;95074.84;6113850;28;109583;-65
2023/07/19 08:18:44;;;;;;;8.10;7.30;;;;;;;29.02;41.87;95071.53;6104420;28;109599;-65
2023/07/19 08:21:48;;;;;;;8.73;7.77;;;;;;;29.10;42.03;95067.91;6113946;28;109173;-65
2023/07/19 08:24:51;;;;;;;9.50;7.63;;;;;;;29.12;42.10;95062.94;6113476;28;109119;-65
2023/07/19 08:27:54;;;;;;;7.97;7.27;;;;;;;29.12;41.59;95062.94;6112326;28;109851;-63
2023/07/19 08:30:57;;;;;;;8.90;7.90;;;;;;;28.89;42.44;95064.66;6103001;28;109993;-65
2023/07/19 08:34:02;;;;;;;8.57;7.77;;;;;;;28.76;42.24;95065.91;6113427;28;109019;-65
2023/07/19 08:37:05;;;;;;;9.40;7.20;;;;;;;28.76;42.02;95072.06;6113054;28;109540;-65
2023/07/19 08:40:09;;;;;;;8.30;7.50;;;;;;;29.06;41.56;95069.72;6109079;28;109433;-66
2023/07/19 08:43:13;;;;;;;8.73;7.10;;;;;;;29.36;41.27;95072.69;6122405;28;109097;-67
2023/07/19 08:46:16;;;;;;;13.63;7.53;;;;;;;29.45;41.12;95076.00;6137259;28;109071;-66
2023/07/19 08:49:22;;;;;;;10.63;8.30;;;;;;;29.39;41.23;95063.13;6113426;28;109131;-66
2023/07/19 08:52:27;;;;;;;8.53;7.70;;;;;;;29.37;41.61;95057.31;6102917;28;109569;-66
2023/07/19 08:55:32;;;;;;;8.67;7.87;;;;;;;29.12;42.15;95052.16;6113515;28;109329;-66
2023/07/19 08:58:39;;;;;;;9.10;7.47;;;;;;;29.37;41.50;95051.91;6113210;28;110538;-66
2023/07/19 09:01:43;;;;;;;10.17;7.93;;;;;;;29.33;39.86;95042.97;6112503;28;110084;-66
2023/07/19 09:05:06;;;;;;;9.13;7.20;;;;;;;29.44;40.36;95033.22;6102311;28;109009;-66
2023/07/19 09:08:10;;;;;;;8.63;7.70;;;;;;;29.59;40.49;95026.19;6125266;28;109622;-66
2023/07/19 09:11:20;;;;;;;13.70;7.73;;;;;;;29.52;40.22;95026.81;6136723;28;109010;-66
2023/07/19 09:14:35;;;;;;;10.07;7.37;;;;;;;29.34;41.27;95029.13;6131261;28;110170;-66
2023/07/19 09:17:41;;;;;;;10.10;7.93;;;;;;;29.45;40.80;95018.59;6127780;28;109080;-66
2023/07/19 09:20:46;;;;;;;11.83;7.60;;;;;;;29.50;39.86;95024.47;6113703;28;109296;-66
2023/07/19 09:23:49;;;;;;;13.50;8.67;;;;;;;29.56;39.91;95027.66;6129688;28;109250;-66
2023/07/19 09:26:56;;;;;;;12.30;9.50;;;;;;;29.64;39.66;95013.22;6127335;28;109644;-71
2023/07/19 09:30:00;;;;;;;11.40;8.33;;;;;;;29.68;40.09;95022.16;6111567;28;109592;-71
2023/07/19 09:33:03;;;;;;;9.07;8.20;;;;;;;29.75;39.77;95013.44;6121455;28;109100;-71
2023/07/19 09:36:08;;;;;;;10.70;8.00;;;;;;;29.50;40.38;95016.38;6136840;28;108978;-70
2023/07/19 09:39:11;;;;;;;13.43;12.10;;;;;;;29.67;41.03;95012.50;6107974;28;110892;-70
2023/07/19 09:42:15;;;;;;;16.03;12.33;;;;;;;29.80;40.44;95005.84;6112440;28;109010;-70
2023/07/19 09:45:19;;;;;;;16.50;10.00;;;;;;;29.60;41.10;95011.56;6112608;28;109089;-72
2023/07/19 09:48:25;;;;;;;12.67;10.00;;;;;;;29.54;41.29;95003.75;6107215;28;109597;-69
2023/07/19 09:51:32;;;;;;;10.70;9.70;;;;;;;29.34;41.44;94998.69;6107563;28;110143;-70
2023/07/19 09:54:35;;;;;;;11.27;10.00;;;;;;;29.27;41.42;95001.25;6112381;28;109206;-70
2023/07/19 09:57:41;;;;;;;10.63;9.60;;;;;;;29.34;41.51;94998.69;6117059;28;109109;-70
2023/07/19 10:00:44;;;;;;;9.50;8.50;;;;;;;29.57;41.23;94996.88;6129272;28;109515;-71
2023/07/19 10:03:47;;;;;;;10.70;9.57;;;;;;;29.48;41.18;94991.69;6139428;28;109849;-70
2023/07/19 10:07:03;;;;;;;10.07;9.10;;;;;;;29.30;41.50;94987.06;6140701;28;110170;-70
2023/07/19 10:10:07;;;;;;;10.07;9.20;;;;;;;29.29;41.15;94980.13;6139974;28;109049;-70
2023/07/19 10:13:13;;;;;;;10.03;9.13;;;;;;;29.42;41.00;94981.56;6128703;28;109153;-70
2023/07/19 10:16:23;;;;;;;10.33;8.87;;;;;;;29.37;41.56;94979.13;6140275;28;109127;-71
2023/07/19 10:19:27;;;;;;;9.17;8.37;;;;;;;29.31;41.67;94973.22;6120670;28;109168;-71
2023/07/19 10:22:53;;;;;;;10.00;8.97;;;;;;;29.28;41.65;94965.09;6113223;28;109126;-69
2023/07/19 10:25:57;;;;;;;11.27;10.13;;;;;;;29.33;41.13;94960.19;6139561;28;109069;-69
2023/07/19 10:29:02;;;;;;;10.60;9.70;;;;;;;29.29;41.17;94956.63;6123697;28;109268;-70
2023/07/19 10:32:06;;;;;;;10.37;9.57;;;;;;;29.30;41.77;94952.03;6115555;28;109400;-71
2023/07/19 10:35:30;;;;;;;10.83;9.93;;;;;;;29.34;41.79;94955.56;6104608;28;110183;-70
2023/07/19 10:38:36;;;;;;;10.10;9.23;;;;;;;29.35;41.50;94947.13;6115030;28;109076;-65
2023/07/19 10:41:39;;;;;;;10.17;9.17;;;;;;;29.27;41.68;94944.66;6115463;28;109367;-64
2023/07/19 10:44:44;;;;;;;10.27;9.47;;;;;;;29.22;41.91;94949.16;6111980;28;109490;-64
2023/07/19 10:47:47;;;;;;;10.50;9.60;;;;;;;29.17;41.89;94954.84;6109527;28;109090;-65
2023/07/19 10:50:50;;;;;;;9.90;8.87;;;;;;;29.09;41.75;94945.06;6115286;28;109292;-65
2023/07/19 10:53:57;;;;;;;10.37;9.27;;;;;;;29.09;41.36;94950.47;6115606;28;109189;-65
2023/07/19 10:57:01;;;;;;;10.23;9.30;;;;;;;29.10;41.21;94943.94;6104406;28;109177;-65
2023/07/19 11:00:12;;;;;;;9.30;8.60;;;;;;;29.06;41.09;94940.34;6114619;28;109063;-65
2023/07/19 11:03:23;;;;;;;10.27;9.37;;;;;;;29.04;40.66;94939.13;6122399;28;109152;-64
2023/07/19 11:06:27;;;;;;;9.80;8.87;;;;;;;29.04;40.02;94937.25;6137994;28;109101;-64
2023/07/19 11:09:31;;;;;;;9.47;8.57;;;;;;;29.11;39.67;94923.94;6128751;28;109699;-64
2023/07/19 11:12:35;;;;;;;9.53;8.73;;;;;;;29.12;40.25;94930.09;6137579;28;109409;-64
2023/07/19 11:15:42;;;;;;;10.20;9.10;;;;;;;29.06;39.99;94924.19;6138804;28;109123;-64
2023/07/19 11:18:45;;;;;;;13.73;9.30;;;;;;;29.04;40.21;94926.47;6134299;28;109089;-64
2023/07/19 11:21:48;;;;;;;9.20;8.30;;;;;;;29.16;39.28;94915.56;6132259;28;109814;-66
2023/07/19 11:24:55;;;;;;;9.33;8.43;;;;;;;29.13;39.18;94929.75;6138368;28;109123;-66
2023/07/19 11:27:58;;;;;;;9.30;8.50;;;;;;;29.14;38.68;94925.13;6137870;28;108791;-65
2023/07/19 11:31:02;;;;;;;10.07;9.17;;;;;;;29.24;39.16;94914.56;6128948;28;109062;-66
2023/07/19 11:34:07;;;;;;;9.97;9.10;;;;;;;29.16;39.11;94920.16;6138323;28;110008;-66
2023/07/19 11:37:17;;;;;;;9.73;8.87;;;;;;;29.16;39.45;94923.63;6137585;28;109130;-66
2023/07/19 11:40:24;;;;;;;9.97;8.60;;;;;;;29.14;39.20;94909.75;6138496;28;110224;-66
2023/07/19 11:43:27;;;;;;;8.87;8.07;;;;;;;29.16;38.90;94907.47;6127435;28;108761;-66
2023/07/19 11:46:30;;;;;;;10.27;9.30;;;;;;;29.14;39.26;94914.34;6138877;28;109996;-66
2023/07/19 11:49:34;;;;;;;9.70;8.90;;;;;;;29.12;38.60;94912.00;6119882;28;109396;-66
2023/07/19 11:52:48;;;;;;;9.10;8.20;;;;;;;29.15;38.05;94910.53;6114269;28;109092;-66
2023/07/19 11:55:53;;;;;;;9.47;8.67;;;;;;;29.13;37.94;94904.72;6082383;28;109195;-66
2023/07/19 11:59:04;;;;;;;8.37;7.73;;;;;;;29.15;37.40;94911.31;6111254;28;109012;-66
2023/07/19 12:02:08;;;;;;;8.50;7.63;;;;;;;29.15;36.78;94905.13;6137990;28;109070;-65
2023/07/19 12:05:13;;;;;;;10.23;7.67;;;;;;;29.19;36.82;94901.38;6127475;28;109056;-66
2023/07/19 12:08:16;;;;;;;8.00;7.33;;;;;;;29.14;36.49;94903.56;6136279;28;108983;-66
2023/07/19 12:11:21;;;;;;;8.53;7.50;;;;;;;29.13;35.81;94896.63;6138177;28;110057;-66
2023/07/19 12:14:24;;;;;;;8.23;7.53;;;;;;;29.10;35.74;94895.41;6137328;28;109172;-66
2023/07/19 12:17:31;;;;;;;7.77;6.97;;;;;;;29.10;35.39;94892.72;6125606;28;109117;-65
2023/07/19 12:20:34;;;;;;;7.37;6.77;;;;;;;29.10;35.24;94884.66;6134501;28;109158;-65
2023/07/19 12:23:37;;;;;;;7.63;7.03;;;;;;;29.09;35.47;94888.47;6136994;28;109136;-66
2023/07/19 12:26:44;;;;;;;7.93;7.33;;;;;;;29.12;35.22;94882.38;6137448;28;110163;-66
2023/07/19 12:29:48;;;;;;;8.70;7.80;;;;;;;29.15;35.20;94884.34;6112665;28;109919;-66
2023/07/19 12:33:06;;;;;;;7.60;6.90;;;;;;;29.14;35.54;94877.41;6113974;28;108842;-66
2023/07/19 12:36:10;;;;;;;7.63;6.97;;;;;;;29.16;35.28;94880.50;6113076;28;109160;-66
2023/07/19 12:39:13;;;;;;;7.80;7.10;;;;;;;29.18;36.59;94870.16;6102229;28;109108;-66
2023/07/19 12:42:17;;;;;;;7.17;6.57;;;;;;;29.14;36.12;94882.00;6112994;28;110150;-65
2023/07/19 12:45:21;;;;;;;7.33;6.67;;;;;;;29.14;35.91;94866.63;6113382;28;110106;-66
2023/07/19 12:48:25;;;;;;;7.33;6.70;;;;;;;29.17;37.23;94865.13;6115199;28;109395;-66
2023/07/19 12:51:28;;;;;;;7.63;6.17;;;;;;;29.17;36.58;94862.44;6127000;28;109301;-65
2023/07/19 12:54:32;;;;;;;7.70;7.10;;;;;;;29.15;36.37;94857.41;6137209;28;109925;-69
2023/07/19 12:57:36;;;;;;;7.20;6.50;;;;;;;29.15;35.77;94851.22;6136977;28;109065;-63
2023/07/19 13:00:40;;;;;;;7.53;6.83;;;;;;;29.18;35.33;94845.91;6136725;28;109359;-64
2023/07/19 13:03:43;;;;;;;7.37;6.87;;;;;;;29.18;36.62;94837.81;6125764;28;109108;-64
2023/07/19 13:06:46;;;;;;;7.47;6.77;;;;;;;29.19;35.87;94836.69;6136868;28;109153;-64
2023/07/19 13:09:51;;;;;;;7.50;6.80;;;;;;;29.20;35.71;94838.22;6135791;28;109872;-63
2023/07/19 13:12:56;;;;;;;7.23;6.70;;;;;;;29.22;35.51;94829.78;6131121;28;109356;-63
2023/07/19 13:15:59;;;;;;;7.27;6.77;;;;;;;29.23;34.27;94829.47;6132049;28;108864;-64
2023/07/19 13:19:02;;;;;;;6.77;6.20;;;;;;;29.24;33.97;94816.75;6128553;28;109125;-63
2023/07/19 13:22:06;;;;;;;7.30;6.53;;;;;;;29.27;34.22;94818.72;6137041;28;108836;-64
2023/07/19 13:25:09;;;;;;;7.20;6.60;;;;;;;29.27;33.66;94826.81;6126616;28;111756;-64
2023/07/19 13:28:14;;;;;;;7.63;6.27;;;;;;;29.26;33.67;94819.88;6136174;28;108889;-64
2023/07/19 13:31:19;;;;;;;6.23;5.63;;;;;;;29.29;33.86;94812.97;6112950;28;109164;-64
2023/07/19 13:34:22;;;;;;;7.00;6.27;;;;;;;29.27;34.20;94815.25;6112293;28;108752;-64
2023/07/19 13:37:25;;;;;;;6.23;5.67;;;;;;;29.26;34.48;94816.41;6101543;28;109475;-64
2023/07/19 13:40:49;;;;;;;6.60;6.00;;;;;;;29.29;34.95;94812.97;6111178;28;109865;-64
2023/07/19 13:43:54;;;;;;;7.40;6.70;;;;;;;29.27;35.21;94793.69;6112122;28;109208;-64
2023/07/19 13:46:58;;;;;;;7.03;6.43;;;;;;;29.31;35.73;94797.22;6107345;28;109028;-64
2023/07/19 13:50:02;;;;;;;6.70;6.10;;;;;;;29.36;35.61;94791.53;6118409;28;109423;-63
2023/07/19 13:53:05;;;;;;;8.40;6.77;;;;;;;29.32;36.11;94788.00;6136205;28;109910;-64
2023/07/19 13:56:08;;;;;;;7.33;6.73;;;;;;;29.33;35.42;94781.47;6132861;28;109030;-64
2023/07/19 13:59:13;;;;;;;7.57;6.97;;;;;;;29.36;34.71;94778.06;6101196;28;109757;-65
2023/07/19 14:02:16;;;;;;;7.67;7.03;;;;;;;29.36;35.02;94769.97;6111961;28;109099;-64
2023/07/19 14:05:20;;;;;;;7.50;6.87;;;;;;;29.36;35.09;94765.34;6125299;28;110019;-64
2023/07/19 14:08:23;;;;;;;7.50;6.80;;;;;;;29.39;35.10;94772.72;6135871;28;109232;-71
2023/07/19 14:11:26;;;;;;;7.97;7.37;;;;;;;29.43;35.04;94764.72;6102028;28;109152;-71
2023/07/19 14:14:31;;;;;;;8.03;7.20;;;;;;;29.42;34.99;94766.63;6111579;28;109123;-71